createdAt,value
2022-10-20T00:01:28.155Z,22.30
2022-10-20T00:03:56.910Z,22.30
2022-10-20T00:06:28.874Z,22.30
2022-10-20T00:08:59.053Z,22.30
2022-10-20T00:11:28.254Z,22.30
2022-10-20T00:13:57.537Z,22.30
2022-10-20T00:16:27.789Z,22.30
2022-10-20T00:18:57.604Z,22.30
2022-10-20T00:21:27.907Z,22.20
2022-10-20T00:23:59.256Z,22.20
2022-10-20T00:26:28.636Z,22.20
2022-10-20T00:28:57.356Z,22.20
2022-10-20T00:31:27.121Z,22.30
2022-10-20T00:33:55.737Z,22.20
2022-10-20T00:36:24.813Z,22.30
2022-10-20T00:39:00.060Z,22.20
2022-10-20T00:41:29.886Z,22.20
2022-10-20T00:44:04.050Z,22.20
2022-10-20T00:46:42.169Z,22.20
2022-10-20T00:49:22.416Z,22.20
2022-10-20T00:51:52.125Z,22.20
2022-10-20T00:54:24.046Z,22.20
2022-10-20T00:56:52.956Z,22.20
2022-10-20T00:59:24.547Z,22.20
2022-10-20T01:01:53.837Z,22.20
2022-10-20T01:04:23.208Z,22.20
2022-10-20T01:06:51.998Z,22.20
2022-10-20T01:09:20.626Z,22.20
2022-10-20T01:12:40.829Z,22.20
2022-10-20T01:15:40.699Z,22.20
2022-10-20T01:18:51.913Z,22.10
2022-10-20T01:21:45.942Z,22.10
2022-10-20T01:24:44.505Z,22.10
2022-10-20T01:27:45.973Z,22.10
2022-10-20T01:30:19.533Z,22.10
2022-10-20T01:33:15.476Z,22.10
2022-10-20T01:36:15.443Z,22.10
2022-10-20T01:38:49.341Z,22.10
2022-10-20T01:41:34.248Z,22.10
2022-10-20T01:44:09.122Z,22.10
2022-10-20T01:46:38.345Z,22.10
2022-10-20T01:49:06.885Z,22.10
2022-10-20T01:51:35.865Z,22.10
2022-10-20T01:54:04.568Z,22.10
2022-10-20T01:56:51.078Z,22.10
2022-10-20T02:00:01.817Z,22.10
2022-10-20T02:02:55.949Z,22.00
2022-10-20T02:05:37.946Z,22.10
2022-10-20T02:08:37.327Z,22.00
2022-10-20T02:11:07.638Z,22.00
2022-10-20T02:13:37.699Z,22.10
2022-10-20T02:16:13.514Z,22.00
2022-10-20T02:18:43.384Z,22.00
2022-10-20T02:21:12.107Z,22.00
2022-10-20T02:23:43.343Z,22.00
2022-10-20T02:26:15.914Z,22.00
2022-10-20T02:28:48.661Z,22.00
2022-10-20T02:31:17.976Z,22.00
2022-10-20T02:33:47.005Z,22.00
2022-10-20T02:36:20.471Z,22.00
2022-10-20T02:38:49.287Z,22.00
2022-10-20T02:41:17.788Z,22.00
2022-10-20T02:43:46.724Z,22.00
2022-10-20T02:46:17.517Z,22.00
2022-10-20T02:48:46.642Z,22.00
2022-10-20T02:51:15.651Z,22.00
2022-10-20T02:53:45.605Z,22.00
2022-10-20T02:56:14.257Z,22.00
2022-10-20T02:58:43.097Z,21.90
2022-10-20T03:01:11.639Z,21.90
2022-10-20T03:03:40.648Z,21.90
2022-10-20T03:06:16.502Z,22.00
2022-10-20T03:08:45.755Z,22.00
2022-10-20T03:11:14.364Z,22.00
2022-10-20T03:13:43.493Z,22.00
2022-10-20T03:16:12.134Z,22.00
2022-10-20T03:18:41.061Z,22.00
2022-10-20T03:21:09.647Z,22.00
2022-10-20T03:23:38.587Z,21.90
2022-10-20T03:26:08.814Z,21.90
2022-10-20T03:28:38.975Z,21.90
2022-10-20T03:31:08.316Z,21.90
2022-10-20T03:33:37.014Z,21.90
2022-10-20T03:36:06.179Z,21.90
2022-10-20T03:38:34.958Z,21.90
2022-10-20T03:41:03.680Z,21.90
2022-10-20T03:43:32.525Z,21.90
2022-10-20T03:46:10.127Z,21.90
2022-10-20T03:48:39.950Z,21.90
2022-10-20T03:51:09.755Z,21.90
2022-10-20T03:53:38.503Z,21.90
2022-10-20T03:56:11.559Z,21.90
2022-10-20T03:58:40.319Z,21.80
2022-10-20T04:01:09.959Z,21.90
2022-10-20T04:03:38.714Z,21.80
2022-10-20T04:06:07.276Z,21.80
2022-10-20T04:08:36.182Z,21.80
2022-10-20T04:11:04.877Z,21.80
2022-10-20T04:13:33.764Z,21.90
2022-10-20T04:16:02.351Z,21.80
2022-10-20T04:18:32.265Z,21.80
2022-10-20T04:21:00.872Z,21.80
2022-10-20T04:23:29.662Z,21.80
2022-10-20T04:25:58.244Z,21.80
2022-10-20T04:28:27.032Z,21.80
2022-10-20T04:30:57.392Z,21.80
2022-10-20T04:33:26.235Z,21.80
2022-10-20T04:36:06.154Z,21.80
2022-10-20T04:38:35.347Z,21.80
2022-10-20T04:41:04.967Z,21.80
2022-10-20T04:43:34.496Z,21.80
2022-10-20T04:46:07.931Z,21.80
2022-10-20T04:48:38.433Z,21.80
2022-10-20T04:51:09.454Z,21.80
2022-10-20T04:53:38.551Z,21.70
2022-10-20T04:56:09.292Z,21.80
2022-10-20T04:58:38.124Z,21.80
2022-10-20T05:01:10.332Z,21.80
2022-10-20T05:03:39.096Z,21.80
2022-10-20T05:06:32.666Z,21.70
2022-10-20T05:09:03.934Z,21.70
2022-10-20T05:11:35.908Z,21.80
2022-10-20T05:14:04.938Z,21.80
2022-10-20T05:16:34.249Z,21.70
2022-10-20T05:19:03.007Z,21.80
2022-10-20T05:21:32.077Z,21.70
2022-10-20T05:24:03.170Z,21.70
2022-10-20T05:26:35.329Z,21.70
2022-10-20T05:29:05.829Z,21.80
2022-10-20T05:31:42.482Z,21.80
2022-10-20T05:34:11.757Z,21.80
2022-10-20T05:36:40.318Z,21.80
2022-10-20T05:39:10.506Z,21.70
2022-10-20T05:41:39.452Z,21.70
2022-10-20T05:44:09.203Z,21.80
2022-10-20T05:46:44.006Z,21.80
2022-10-20T05:49:15.831Z,21.80
2022-10-20T05:51:45.521Z,21.70
2022-10-20T05:54:14.520Z,21.70
2022-10-20T05:56:43.040Z,21.70
2022-10-20T05:59:12.259Z,21.70
2022-10-20T06:01:49.628Z,21.70
2022-10-20T06:04:26.340Z,21.70
2022-10-20T06:06:55.125Z,21.70
2022-10-20T06:09:24.705Z,21.60
2022-10-20T06:11:53.405Z,21.70
2022-10-20T06:14:23.009Z,21.70
2022-10-20T06:16:55.654Z,21.70
2022-10-20T06:19:25.100Z,21.60
2022-10-20T06:21:53.573Z,21.70
2022-10-20T06:24:22.656Z,21.70
2022-10-20T06:26:51.818Z,21.70
2022-10-20T06:29:20.579Z,21.70
2022-10-20T06:31:51.099Z,21.70
2022-10-20T06:34:22.732Z,21.70
2022-10-20T06:36:52.109Z,21.70
2022-10-20T06:39:23.627Z,21.70
2022-10-20T06:41:57.443Z,21.70
2022-10-20T06:44:33.408Z,21.70
2022-10-20T06:47:01.950Z,21.80
2022-10-20T06:49:30.796Z,21.70
2022-10-20T06:51:59.376Z,21.70
2022-10-20T06:54:28.223Z,21.70
2022-10-20T06:56:56.826Z,21.70
2022-10-20T06:59:25.599Z,21.70
2022-10-20T07:01:54.299Z,21.70
2022-10-20T07:04:23.173Z,21.70
2022-10-20T07:06:52.067Z,21.70
2022-10-20T07:09:21.159Z,21.70
2022-10-20T07:11:53.328Z,21.70
2022-10-20T07:14:22.357Z,21.70
2022-10-20T07:16:50.776Z,21.70
2022-10-20T07:19:19.491Z,21.70
2022-10-20T07:21:48.005Z,21.70
2022-10-20T07:24:17.287Z,21.70
2022-10-20T07:26:45.785Z,21.70
2022-10-20T07:29:14.953Z,21.80
2022-10-20T07:31:46.305Z,21.80
2022-10-20T07:34:27.240Z,21.80
2022-10-20T07:36:56.875Z,21.80
2022-10-20T07:39:26.138Z,21.80
2022-10-20T07:41:54.658Z,21.80
2022-10-20T07:44:23.572Z,21.80
2022-10-20T07:46:52.248Z,21.90
2022-10-20T07:52:09.771Z,21.90
2022-10-20T07:54:38.589Z,21.90
2022-10-20T07:57:07.017Z,21.90
2022-10-20T07:59:35.776Z,21.90
2022-10-20T08:02:04.567Z,21.90
2022-10-20T08:04:33.535Z,21.90
2022-10-20T08:07:02.047Z,21.90
2022-10-20T08:09:30.793Z,21.90
2022-10-20T08:11:59.382Z,22.00
2022-10-20T08:14:32.104Z,22.00
2022-10-20T08:17:02.841Z,22.00
2022-10-20T08:19:44.935Z,22.00
2022-10-20T08:22:13.598Z,22.00
2022-10-20T08:24:42.414Z,22.00
2022-10-20T08:27:10.868Z,22.00
2022-10-20T08:29:39.613Z,22.00
2022-10-20T08:32:08.233Z,22.00
2022-10-20T08:34:37.117Z,22.00
2022-10-20T08:37:05.851Z,22.00
2022-10-20T08:39:34.697Z,22.00
2022-10-20T08:42:08.620Z,22.00
2022-10-20T08:44:39.205Z,22.00
2022-10-20T08:47:29.200Z,22.00
2022-10-20T08:50:01.916Z,22.00
2022-10-20T08:52:30.333Z,22.10
2022-10-20T08:54:59.082Z,22.10
2022-10-20T08:57:34.706Z,22.10
2022-10-20T09:00:24.885Z,22.20
2022-10-20T09:02:54.794Z,22.20
2022-10-20T09:05:28.293Z,22.20
2022-10-20T09:07:57.065Z,22.20
2022-10-20T09:10:36.393Z,22.20
2022-10-20T09:13:29.717Z,22.20
2022-10-20T09:16:03.933Z,22.20
2022-10-20T09:18:33.858Z,22.20
2022-10-20T09:21:06.177Z,22.20
2022-10-20T09:23:42.471Z,22.20
2022-10-20T09:26:37.380Z,22.20
2022-10-20T09:29:16.101Z,22.30
2022-10-20T09:31:53.975Z,22.30
2022-10-20T09:34:30.862Z,22.30
2022-10-20T09:37:05.424Z,22.30
2022-10-20T09:39:49.211Z,22.30
2022-10-20T09:42:30.917Z,22.30
2022-10-20T09:45:08.276Z,22.30
2022-10-20T09:47:36.985Z,22.30
2022-10-20T09:50:06.893Z,22.30
2022-10-20T09:52:47.969Z,22.30
2022-10-20T09:55:37.172Z,22.30
2022-10-20T09:58:06.087Z,22.30
2022-10-20T10:00:38.122Z,22.30
2022-10-20T10:03:22.498Z,22.30
2022-10-20T10:05:59.225Z,22.30
2022-10-20T10:08:41.214Z,22.30
2022-10-20T10:11:21.176Z,22.40
2022-10-20T10:13:52.075Z,22.40
2022-10-20T10:16:22.474Z,22.40
2022-10-20T10:19:03.158Z,22.40
2022-10-20T10:21:44.426Z,22.40
2022-10-20T10:24:44.145Z,22.40
2022-10-20T10:27:27.946Z,22.50
2022-10-20T10:30:17.565Z,22.50
2022-10-20T10:32:47.695Z,22.50
2022-10-20T10:35:40.325Z,22.60
2022-10-20T10:38:10.516Z,22.60
2022-10-20T10:40:50.308Z,22.60
2022-10-20T10:43:46.349Z,22.60
2022-10-20T10:46:26.472Z,22.60
2022-10-20T10:49:32.165Z,22.60
2022-10-20T10:52:25.907Z,22.60
2022-10-20T10:55:51.322Z,22.60
2022-10-20T10:58:41.421Z,22.70
2022-10-20T11:01:37.537Z,22.70
2022-10-20T11:04:40.014Z,22.70
2022-10-20T11:07:17.235Z,22.80
2022-10-20T11:10:25.996Z,22.80
2022-10-20T11:13:31.473Z,22.80
2022-10-20T11:16:37.128Z,22.80
2022-10-20T11:19:23.327Z,22.80
2022-10-20T11:22:15.994Z,22.80
2022-10-20T11:24:50.402Z,22.80
2022-10-20T11:27:25.498Z,22.80
2022-10-20T11:30:16.774Z,22.90
2022-10-20T11:33:17.260Z,22.90
2022-10-20T11:36:10.714Z,22.80
2022-10-20T11:38:55.886Z,22.80
2022-10-20T11:41:49.805Z,22.90
2022-10-20T11:44:31.487Z,22.90
2022-10-20T11:47:27.185Z,22.90
2022-10-20T11:49:56.104Z,22.80
2022-10-20T11:53:00.969Z,22.90
2022-10-20T11:55:57.173Z,22.90
2022-10-20T11:58:31.535Z,22.90
2022-10-20T12:01:33.578Z,22.90
2022-10-20T12:04:34.626Z,22.80
2022-10-20T12:07:26.274Z,22.90
2022-10-20T12:10:25.424Z,22.90
2022-10-20T12:13:17.206Z,22.90
2022-10-20T12:15:52.026Z,22.90
2022-10-20T12:18:32.755Z,23.00
2022-10-20T12:21:10.305Z,23.00
2022-10-20T12:23:45.653Z,23.00
2022-10-20T12:26:35.595Z,23.00
2022-10-20T12:29:32.833Z,23.00
2022-10-20T12:32:29.513Z,23.00
2022-10-20T12:35:01.084Z,23.00
2022-10-20T12:37:31.789Z,23.00
2022-10-20T12:40:08.586Z,23.00
2022-10-20T12:42:42.481Z,23.00
2022-10-20T12:45:20.415Z,22.90
2022-10-20T12:47:57.415Z,23.00
2022-10-20T12:50:49.773Z,22.90
2022-10-20T12:53:18.353Z,22.90
2022-10-20T12:56:02.227Z,22.90
2022-10-20T12:58:38.768Z,22.90
2022-10-20T13:01:10.967Z,22.90
2022-10-20T13:03:48.637Z,22.90
2022-10-20T13:06:24.398Z,22.90
2022-10-20T13:09:05.262Z,22.90
2022-10-20T13:11:38.964Z,22.90
2022-10-20T13:14:13.280Z,22.90
2022-10-20T13:17:01.727Z,22.90
2022-10-20T13:19:45.672Z,23.00
2022-10-20T13:22:52.825Z,22.90
2022-10-20T13:25:53.668Z,22.90
2022-10-20T13:28:30.400Z,22.90
2022-10-20T13:31:15.159Z,22.90
2022-10-20T13:34:15.780Z,22.90
2022-10-20T13:37:21.659Z,22.90
2022-10-20T13:40:36.565Z,22.90
2022-10-20T13:43:31.817Z,22.90
2022-10-20T13:46:20.553Z,22.90
2022-10-20T13:49:28.528Z,22.90
2022-10-20T13:52:03.939Z,22.90
2022-10-20T13:54:36.358Z,22.90
2022-10-20T13:57:05.199Z,22.80
2022-10-20T13:59:33.778Z,22.80
2022-10-20T14:02:23.858Z,22.90
2022-10-20T14:05:08.078Z,22.80
2022-10-20T14:07:44.945Z,22.80
2022-10-20T14:10:22.319Z,22.80
2022-10-20T14:12:52.357Z,22.80
2022-10-20T14:15:29.018Z,22.80
2022-10-20T14:18:07.420Z,22.80
2022-10-20T14:20:42.056Z,22.80
2022-10-20T14:23:11.043Z,22.70
2022-10-20T14:25:39.551Z,22.80
2022-10-20T14:28:13.492Z,22.70
2022-10-20T14:30:42.289Z,22.80
2022-10-20T14:33:15.306Z,22.70
2022-10-20T14:35:51.020Z,22.70
2022-10-20T14:38:38.072Z,22.70
2022-10-20T14:41:09.693Z,22.70
2022-10-20T14:43:40.132Z,22.70
2022-10-20T14:46:11.364Z,22.70
2022-10-20T14:48:49.181Z,22.80
2022-10-20T14:51:33.004Z,22.70
2022-10-20T14:54:26.686Z,22.70
2022-10-20T14:57:01.281Z,22.70
2022-10-20T14:59:32.614Z,22.70
2022-10-20T15:02:20.860Z,22.70
2022-10-20T15:04:52.207Z,22.70
2022-10-20T15:07:27.579Z,22.70
2022-10-20T15:10:04.307Z,22.70
2022-10-20T15:12:36.752Z,22.70
2022-10-20T15:15:20.788Z,22.70
2022-10-20T15:17:51.819Z,22.70
2022-10-20T15:20:39.347Z,22.70
2022-10-20T15:23:27.698Z,22.70
2022-10-20T15:26:13.990Z,22.70
2022-10-20T15:28:47.598Z,22.70
2022-10-20T15:31:27.933Z,22.70
2022-10-20T15:33:57.461Z,22.60
2022-10-20T15:36:33.723Z,22.60
2022-10-20T15:39:04.415Z,22.60
2022-10-20T15:41:35.709Z,22.60
2022-10-20T15:44:17.098Z,22.60
2022-10-20T15:46:46.187Z,22.70
2022-10-20T15:49:14.989Z,22.60
2022-10-20T15:51:47.537Z,22.60
2022-10-20T15:54:18.777Z,22.60
2022-10-20T15:56:47.554Z,22.60
2022-10-20T15:59:15.923Z,22.60
2022-10-20T16:01:44.526Z,22.60
2022-10-20T16:04:26.549Z,22.60
2022-10-20T16:06:59.050Z,22.60
2022-10-20T16:09:30.735Z,22.60
2022-10-20T16:11:59.561Z,22.60
2022-10-20T16:14:28.006Z,22.60
2022-10-20T16:16:59.438Z,22.60
2022-10-20T16:19:28.019Z,22.60
2022-10-20T16:21:56.743Z,22.60
2022-10-20T16:24:25.267Z,22.60
2022-10-20T16:26:54.025Z,22.50
2022-10-20T16:29:22.531Z,22.60
2022-10-20T16:31:51.138Z,22.60
2022-10-20T16:34:19.829Z,22.60
2022-10-20T16:36:50.816Z,22.60
2022-10-20T16:39:19.884Z,22.60
2022-10-20T16:41:48.486Z,22.50
2022-10-20T16:44:16.977Z,22.60
2022-10-20T16:46:45.659Z,22.50
2022-10-20T16:49:14.015Z,22.50
2022-10-20T16:51:42.577Z,22.60
2022-10-20T16:54:11.028Z,22.60
2022-10-20T16:56:39.651Z,22.60
2022-10-20T16:59:08.029Z,22.60
2022-10-20T17:01:36.636Z,22.60
2022-10-20T17:04:05.274Z,22.60
2022-10-20T17:06:33.929Z,22.60
2022-10-20T17:09:02.470Z,22.60
2022-10-20T17:11:32.069Z,22.60
2022-10-20T17:14:00.565Z,22.60
2022-10-20T17:16:31.550Z,22.60
2022-10-20T17:19:01.935Z,22.60
2022-10-20T17:21:31.258Z,22.60
2022-10-20T17:24:00.036Z,22.60
2022-10-20T17:26:32.834Z,22.60
2022-10-20T17:29:01.697Z,22.60
2022-10-20T17:31:30.813Z,22.60
2022-10-20T17:33:59.511Z,22.60
2022-10-20T17:36:29.393Z,22.60
2022-10-20T17:39:09.222Z,22.60
2022-10-20T17:41:37.802Z,22.60
2022-10-20T17:44:08.512Z,22.60
2022-10-20T17:46:37.372Z,22.60
2022-10-20T17:49:06.211Z,22.60
2022-10-20T17:51:35.218Z,22.60
2022-10-20T17:54:04.158Z,22.60
2022-10-20T17:56:40.531Z,22.60
2022-10-20T17:59:12.946Z,22.60
2022-10-20T18:01:41.851Z,22.60
2022-10-20T18:04:15.680Z,22.60
2022-10-20T18:06:44.661Z,22.60
2022-10-20T18:09:16.261Z,22.60
2022-10-20T18:11:49.047Z,22.60
2022-10-20T18:14:17.743Z,22.60
2022-10-20T18:16:46.706Z,22.50
2022-10-20T18:19:17.594Z,22.60
2022-10-20T18:21:46.716Z,22.50
2022-10-20T18:24:16.197Z,22.60
2022-10-20T18:26:45.268Z,22.60
2022-10-20T18:29:14.446Z,22.60
2022-10-20T18:31:44.559Z,22.50
2022-10-20T18:34:15.408Z,22.50
2022-10-20T18:36:45.857Z,22.60
2022-10-20T18:39:14.831Z,22.60
2022-10-20T18:41:44.086Z,22.50
2022-10-20T18:44:17.241Z,22.60
2022-10-20T18:46:46.657Z,22.60
2022-10-20T18:49:19.013Z,22.60
2022-10-20T18:51:47.903Z,22.50
2022-10-20T18:54:16.870Z,22.50
2022-10-20T18:56:46.474Z,22.50
2022-10-20T18:59:16.570Z,22.50
2022-10-20T19:01:45.529Z,22.50
2022-10-20T19:04:14.018Z,22.50
2022-10-20T19:06:47.415Z,22.50
2022-10-20T19:09:19.456Z,22.50
2022-10-20T19:11:51.676Z,22.50
2022-10-20T19:14:20.088Z,22.50
2022-10-20T19:16:49.881Z,22.50
2022-10-20T19:19:18.204Z,22.50
2022-10-20T19:21:47.083Z,22.50
2022-10-20T19:24:21.523Z,22.50
2022-10-20T19:27:08.042Z,22.50
2022-10-20T19:29:44.453Z,22.50
2022-10-20T19:32:13.722Z,22.50
2022-10-20T19:34:42.282Z,22.50
2022-10-20T19:37:11.177Z,22.50
2022-10-20T19:39:42.083Z,22.40
2022-10-20T19:42:11.324Z,22.50
2022-10-20T19:44:40.252Z,22.40
2022-10-20T19:47:11.832Z,22.40
2022-10-20T19:49:42.605Z,22.40
2022-10-20T19:52:11.771Z,22.40
2022-10-20T19:54:40.613Z,22.40
2022-10-20T19:57:09.687Z,22.30
2022-10-20T19:59:39.282Z,22.30
2022-10-20T20:02:08.403Z,22.30
2022-10-20T20:04:37.281Z,22.30
2022-10-20T20:07:06.496Z,22.20
2022-10-20T20:09:35.623Z,22.20
2022-10-20T20:12:05.034Z,22.20
2022-10-20T20:14:33.922Z,22.30
2022-10-20T20:17:03.565Z,22.30
2022-10-20T20:19:32.859Z,22.30
2022-10-20T20:22:01.628Z,22.40
2022-10-20T20:24:30.171Z,22.30
2022-10-20T20:26:58.988Z,22.40
2022-10-20T20:29:27.577Z,22.40
2022-10-20T20:31:56.517Z,22.40
2022-10-20T20:34:25.181Z,22.40
2022-10-20T20:36:53.881Z,22.40
2022-10-20T20:39:22.505Z,22.40
2022-10-20T20:41:51.408Z,22.40
2022-10-20T20:44:19.929Z,22.40
2022-10-20T20:46:48.736Z,22.40
2022-10-20T20:49:17.171Z,22.40
2022-10-20T20:51:45.947Z,22.40
2022-10-20T20:54:14.635Z,22.40
2022-10-20T20:56:43.589Z,22.40
2022-10-20T20:59:18.431Z,22.40
